sensor_id;sensor_type;location;lat;lon;timestamp;pressure;altitude;pressure_sealevel;temperature;humidity
13478;BME280;12598;62.382;17.344;2023-08-30T00:00:19;100621.56;;;26.56;37.50
13478;BME280;12598;62.382;17.344;2023-08-30T00:01:22;100616.16;;;26.56;37.59
13478;BME280;12598;62.382;17.344;2023-08-30T00:02:24;100620.94;;;26.54;37.57
13478;BME280;12598;62.382;17.344;2023-08-30T00:03:26;100614.47;;;26.55;37.45
13478;BME280;12598;62.382;17.344;2023-08-30T00:04:28;100619.91;;;26.55;37.44
13478;BME280;12598;62.382;17.344;2023-08-30T00:05:30;100617.16;;;26.49;37.47
13478;BME280;12598;62.382;17.344;2023-08-30T00:06:32;100615.53;;;26.54;37.53
13478;BME280;12598;62.382;17.344;2023-08-30T00:07:34;100616.56;;;26.53;37.46
13478;BME280;12598;62.382;17.344;2023-08-30T00:08:36;100618.41;;;26.53;37.44
13478;BME280;12598;62.382;17.344;2023-08-30T00:09:38;100621.97;;;26.53;37.41
13478;BME280;12598;62.382;17.344;2023-08-30T00:10:39;100615.94;;;26.51;37.57
13478;BME280;12598;62.382;17.344;2023-08-30T00:11:44;100612.78;;;26.48;37.53
13478;BME280;12598;62.382;17.344;2023-08-30T00:12:46;100610.50;;;26.51;37.59
13478;BME280;12598;62.382;17.344;2023-08-30T00:13:47;100614.03;;;26.52;37.46
13478;BME280;12598;62.382;17.344;2023-08-30T00:14:50;100611.56;;;26.50;37.23
13478;BME280;12598;62.382;17.344;2023-08-30T00:15:52;100617.59;;;26.52;37.60
13478;BME280;12598;62.382;17.344;2023-08-30T00:16:54;100615.09;;;26.51;37.74
13478;BME280;12598;62.382;17.344;2023-08-30T00:17:56;100616.97;;;26.50;37.59
13478;BME280;12598;62.382;17.344;2023-08-30T00:18:58;100621.56;;;26.50;37.46
13478;BME280;12598;62.382;17.344;2023-08-30T00:20:00;100614.25;;;26.50;37.66
13478;BME280;12598;62.382;17.344;2023-08-30T00:21:02;100621.56;;;26.50;37.49
13478;BME280;12598;62.382;17.344;2023-08-30T00:22:04;100616.97;;;26.50;37.17
13478;BME280;12598;62.382;17.344;2023-08-30T00:23:08;100618.00;;;26.49;37.40
13478;BME280;12598;62.382;17.344;2023-08-30T00:24:10;100615.31;;;26.49;37.45
13478;BME280;12598;62.382;17.344;2023-08-30T00:25:12;100612.78;;;26.48;37.33
13478;BME280;12598;62.382;17.344;2023-08-30T00:26:14;100616.34;;;26.48;37.41
13478;BME280;12598;62.382;17.344;2023-08-30T00:27:16;100611.97;;;26.47;37.33
13478;BME280;12598;62.382;17.344;2023-08-30T00:28:18;100612.13;;;26.46;37.63
13478;BME280;12598;62.382;17.344;2023-08-30T00:29:19;100617.38;;;26.47;37.54
13478;BME280;12598;62.382;17.344;2023-08-30T00:30:21;100617.38;;;26.47;37.51
13478;BME280;12598;62.382;17.344;2023-08-30T00:31:23;100614.69;;;26.47;37.51
13478;BME280;12598;62.382;17.344;2023-08-30T00:32:25;100614.84;;;26.46;37.58
13478;BME280;12598;62.382;17.344;2023-08-30T00:33:27;100619.25;;;26.47;37.41
13478;BME280;12598;62.382;17.344;2023-08-30T00:34:29;100610.03;;;26.41;37.30
13478;BME280;12598;62.382;17.344;2023-08-30T00:35:31;100615.06;;;26.44;37.45
13478;BME280;12598;62.382;17.344;2023-08-30T00:36:33;100610.44;;;26.45;37.63
13478;BME280;12598;62.382;17.344;2023-08-30T00:37:35;100619.44;;;26.45;37.60
13478;BME280;12598;62.382;17.344;2023-08-30T00:38:37;100609.63;;;26.44;37.76
13478;BME280;12598;62.382;17.344;2023-08-30T00:39:39;100616.72;;;26.45;37.67
13478;BME280;12598;62.382;17.344;2023-08-30T00:40:41;100616.91;;;26.44;37.60
13478;BME280;12598;62.382;17.344;2023-08-30T00:41:44;100609.19;;;26.41;37.75
13478;BME280;12598;62.382;17.344;2023-08-30T00:42:46;100609.00;;;26.42;37.41
13478;BME280;12598;62.382;17.344;2023-08-30T00:43:47;100612.75;;;26.41;37.62
13478;BME280;12598;62.382;17.344;2023-08-30T00:44:50;100613.38;;;26.43;37.55
13478;BME280;12598;62.382;17.344;2023-08-30T00:45:52;100610.69;;;26.43;37.45
13478;BME280;12598;62.382;17.344;2023-08-30T00:46:54;100607.97;;;26.43;37.55
13478;BME280;12598;62.382;17.344;2023-08-30T00:47:56;100614.44;;;26.42;37.62
13478;BME280;12598;62.382;17.344;2023-08-30T00:49:00;100600.66;;;26.37;37.65
13478;BME280;12598;62.382;17.344;2023-08-30T00:50:02;100605.22;;;26.37;37.68
13478;BME280;12598;62.382;17.344;2023-08-30T00:51:04;100606.91;;;26.38;37.65
13478;BME280;12598;62.382;17.344;2023-08-30T00:52:08;100611.09;;;26.40;37.47
13478;BME280;12598;62.382;17.344;2023-08-30T00:53:11;100611.72;;;26.42;37.57
13478;BME280;12598;62.382;17.344;2023-08-30T00:54:14;100612.75;;;26.41;37.55
13478;BME280;12598;62.382;17.344;2023-08-30T00:55:17;100620.88;;;26.41;37.47
13478;BME280;12598;62.382;17.344;2023-08-30T00:56:19;100592.69;;;26.23;37.64
13478;BME280;12598;62.382;17.344;2023-08-30T00:57:21;100619.22;;;26.40;37.53
13478;BME280;12598;62.382;17.344;2023-08-30T00:58:23;100609.41;;;26.39;37.57
13478;BME280;12598;62.382;17.344;2023-08-30T00:59:28;100620.25;;;26.39;37.72
13478;BME280;12598;62.382;17.344;2023-08-30T01:00:31;100620.44;;;26.38;37.57
13478;BME280;12598;62.382;17.344;2023-08-30T01:01:34;100615.88;;;26.38;37.19
13478;BME280;12598;62.382;17.344;2023-08-30T01:02:36;100620.25;;;26.39;37.52
13478;BME280;12598;62.382;17.344;2023-08-30T01:03:38;100615.22;;;26.36;37.29
13478;BME280;12598;62.382;17.344;2023-08-30T01:04:40;100611.50;;;26.37;37.43
13478;BME280;12598;62.382;17.344;2023-08-30T01:05:41;100615.22;;;26.36;37.50
13478;BME280;12598;62.382;17.344;2023-08-30T01:06:45;100603.13;;;26.32;37.46
13478;BME280;12598;62.382;17.344;2023-08-30T01:07:46;100611.69;;;26.36;37.57
13478;BME280;12598;62.382;17.344;2023-08-30T01:08:48;100613.56;;;26.35;37.52
13478;BME280;12598;62.382;17.344;2023-08-30T01:09:53;100614.41;;;26.36;37.56
13478;BME280;12598;62.382;17.344;2023-08-30T01:11:19;100619.00;;;26.42;37.47
13478;BME280;12598;62.382;17.344;2023-08-30T01:12:29;100616.09;;;26.43;37.40
13478;BME280;12598;62.382;17.344;2023-08-30T01:13:50;100619.84;;;26.42;37.32
13478;BME280;12598;62.382;17.344;2023-08-30T01:15:22;100614.84;;;26.46;37.25
13478;BME280;12598;62.382;17.344;2023-08-30T01:16:24;100619.06;;;26.48;37.36
13478;BME280;12598;62.382;17.344;2023-08-30T01:17:27;100609.00;;;26.42;37.31
13478;BME280;12598;62.382;17.344;2023-08-30T01:18:33;100614.00;;;26.39;37.39
13478;BME280;12598;62.382;17.344;2023-08-30T01:20:02;100618.19;;;26.41;37.53
13478;BME280;12598;62.382;17.344;2023-08-30T01:21:30;100626.56;;;26.46;37.34
13478;BME280;12598;62.382;17.344;2023-08-30T01:22:50;100613.00;;;26.46;37.34
13478;BME280;12598;62.382;17.344;2023-08-30T01:24:02;100617.78;;;26.44;37.09
13478;BME280;12598;62.382;17.344;2023-08-30T01:26:26;100612.13;;;26.39;37.36
13478;BME280;12598;62.382;17.344;2023-08-30T01:27:31;100617.56;;;26.39;37.37
13478;BME280;12598;62.382;17.344;2023-08-30T01:28:36;100612.91;;;26.33;37.40
13478;BME280;12598;62.382;17.344;2023-08-30T01:29:43;100614.81;;;26.33;37.59
13478;BME280;12598;62.382;17.344;2023-08-30T01:30:47;100618.56;;;26.32;37.39
13478;BME280;12598;62.382;17.344;2023-08-30T01:31:50;100617.72;;;26.31;37.33
13478;BME280;12598;62.382;17.344;2023-08-30T01:32:53;100621.47;;;26.30;37.55
13478;BME280;12598;62.382;17.344;2023-08-30T01:33:58;100613.56;;;26.29;37.60
13478;BME280;12598;62.382;17.344;2023-08-30T01:35:01;100609.38;;;26.26;37.71
13478;BME280;12598;62.382;17.344;2023-08-30T01:36:04;100626.25;;;26.28;37.74
13478;BME280;12598;62.382;17.344;2023-08-30T01:37:07;100624.41;;;26.29;37.59
13478;BME280;12598;62.382;17.344;2023-08-30T01:38:10;100622.91;;;26.26;37.65
13478;BME280;12598;62.382;17.344;2023-08-30T01:39:13;100619.38;;;26.26;37.61
13478;BME280;12598;62.382;17.344;2023-08-30T01:40:16;100617.50;;;26.26;37.70
13478;BME280;12598;62.382;17.344;2023-08-30T01:41:20;100620.22;;;26.26;37.70
13478;BME280;12598;62.382;17.344;2023-08-30T01:42:25;100620.22;;;26.26;37.60
13478;BME280;12598;62.382;17.344;2023-08-30T01:43:29;100615.81;;;26.25;37.71
13478;BME280;12598;62.382;17.344;2023-08-30T01:44:32;100621.88;;;26.27;37.72
13478;BME280;12598;62.382;17.344;2023-08-30T01:45:36;100621.06;;;26.27;37.72
13478;BME280;12598;62.382;17.344;2023-08-30T01:46:38;100615.00;;;26.25;37.69
13478;BME280;12598;62.382;17.344;2023-08-30T01:47:44;100615.00;;;26.25;37.80
13478;BME280;12598;62.382;17.344;2023-08-30T01:48:47;100617.50;;;26.26;37.83
13478;BME280;12598;62.382;17.344;2023-08-30T01:49:51;100611.25;;;26.26;37.66
13478;BME280;12598;62.382;17.344;2023-08-30T01:50:54;100607.69;;;26.25;37.63
13478;BME280;12598;62.382;17.344;2023-08-30T01:52:01;100614.78;;;26.26;37.55
13478;BME280;12598;62.382;17.344;2023-08-30T01:53:03;100608.53;;;26.26;37.72
13478;BME280;12598;62.382;17.344;2023-08-30T01:54:06;100606.88;;;26.25;37.70
13478;BME280;12598;62.382;17.344;2023-08-30T01:55:10;100606.03;;;26.24;37.77
13478;BME280;12598;62.382;17.344;2023-08-30T01:56:15;100593.91;;;26.20;37.78
13478;BME280;12598;62.382;17.344;2023-08-30T01:57:17;100595.81;;;26.20;37.98
13478;BME280;12598;62.382;17.344;2023-08-30T01:58:18;100600.59;;;26.24;37.78
13478;BME280;12598;62.382;17.344;2023-08-30T01:59:21;100598.94;;;26.23;37.72
13478;BME280;12598;62.382;17.344;2023-08-30T02:00:23;100597.25;;;26.22;37.84
13478;BME280;12598;62.382;17.344;2023-08-30T02:01:25;100598.09;;;26.23;37.65
13478;BME280;12598;62.382;17.344;2023-08-30T02:02:30;100591.03;;;26.22;38.04
13478;BME280;12598;62.382;17.344;2023-08-30T02:03:32;100593.50;;;26.23;37.92
13478;BME280;12598;62.382;17.344;2023-08-30T02:04:33;100589.13;;;26.22;37.78
13478;BME280;12598;62.382;17.344;2023-08-30T02:05:37;100592.88;;;26.21;38.04
13478;BME280;12598;62.382;17.344;2023-08-30T02:07:03;100591.00;;;26.28;37.81
13478;BME280;12598;62.382;17.344;2023-08-30T02:08:20;100584.78;;;26.28;37.83
13478;BME280;12598;62.382;17.344;2023-08-30T02:09:28;100587.25;;;26.29;37.75
13478;BME280;12598;62.382;17.344;2023-08-30T02:10:34;100589.34;;;26.27;37.84
13478;BME280;12598;62.382;17.344;2023-08-30T02:11:37;100592.28;;;26.26;37.70
13478;BME280;12598;62.382;17.344;2023-08-30T02:12:48;100593.09;;;26.26;38.26
13478;BME280;12598;62.382;17.344;2023-08-30T02:13:52;100589.13;;;26.22;37.75
13478;BME280;12598;62.382;17.344;2023-08-30T02:14:57;100601.44;;;26.25;38.10
13478;BME280;12598;62.382;17.344;2023-08-30T02:16:00;100592.69;;;26.23;37.46
13478;BME280;12598;62.382;17.344;2023-08-30T02:17:03;100595.41;;;26.23;37.75
13478;BME280;12598;62.382;17.344;2023-08-30T02:18:07;100586.41;;;26.22;37.90
13478;BME280;12598;62.382;17.344;2023-08-30T02:19:11;100590.16;;;26.21;38.02
13478;BME280;12598;62.382;17.344;2023-08-30T02:20:13;100588.50;;;26.20;38.02
13478;BME280;12598;62.382;17.344;2023-08-30T02:21:16;100595.81;;;26.20;37.87
13478;BME280;12598;62.382;17.344;2023-08-30T02:22:19;100595.81;;;26.20;37.69
13478;BME280;12598;62.382;17.344;2023-08-30T02:23:23;100596.00;;;26.18;38.01
13478;BME280;12598;62.382;17.344;2023-08-30T02:24:26;100599.34;;;26.20;37.75
13478;BME280;12598;62.382;17.344;2023-08-30T02:25:27;100594.97;;;26.19;37.63
13478;BME280;12598;62.382;17.344;2023-08-30T02:26:29;100596.63;;;26.20;37.94
13478;BME280;12598;62.382;17.344;2023-08-30T02:27:32;100602.28;;;26.19;38.08
13478;BME280;12598;62.382;17.344;2023-08-30T02:28:35;100592.25;;;26.19;37.89
13478;BME280;12598;62.382;17.344;2023-08-30T02:29:40;100591.63;;;26.17;37.88
13478;BME280;12598;62.382;17.344;2023-08-30T02:30:42;100598.53;;;26.20;37.78
13478;BME280;12598;62.382;17.344;2023-08-30T02:31:44;100599.56;;;26.19;38.17
13478;BME280;12598;62.382;17.344;2023-08-30T02:32:46;100593.28;;;26.18;37.78
13478;BME280;12598;62.382;17.344;2023-08-30T02:33:50;100596.00;;;26.18;38.03
13478;BME280;12598;62.382;17.344;2023-08-30T02:34:52;100594.31;;;26.17;37.98
13478;BME280;12598;62.382;17.344;2023-08-30T02:35:54;100594.31;;;26.17;38.12
13478;BME280;12598;62.382;17.344;2023-08-30T02:36:58;100594.31;;;26.17;37.97
13478;BME280;12598;62.382;17.344;2023-08-30T02:37:59;100593.28;;;26.18;37.71
13478;BME280;12598;62.382;17.344;2023-08-30T02:39:01;100593.50;;;26.17;37.90
13478;BME280;12598;62.382;17.344;2023-08-30T02:40:05;100592.44;;;26.11;37.98
13478;BME280;12598;62.382;17.344;2023-08-30T02:41:07;100593.69;;;26.15;37.90
13478;BME280;12598;62.382;17.344;2023-08-30T02:42:09;100607.88;;;26.17;37.97
13478;BME280;12598;62.382;17.344;2023-08-30T02:43:11;100593.69;;;26.15;38.21
13478;BME280;12598;62.382;17.344;2023-08-30T02:44:13;100592.22;;;26.13;37.80
13478;BME280;12598;62.382;17.344;2023-08-30T02:45:16;100602.69;;;26.16;37.99
13478;BME280;12598;62.382;17.344;2023-08-30T02:46:19;100602.47;;;26.17;37.97
13478;BME280;12598;62.382;17.344;2023-08-30T02:47:21;100600.78;;;26.16;37.91
13478;BME280;12598;62.382;17.344;2023-08-30T02:48:22;100581.16;;;26.01;38.01
13478;BME280;12598;62.382;17.344;2023-08-30T02:49:24;100603.50;;;26.16;37.66
13478;BME280;12598;62.382;17.344;2023-08-30T02:50:26;100608.09;;;26.16;37.97
13478;BME280;12598;62.382;17.344;2023-08-30T02:51:28;100603.50;;;26.16;37.98
13478;BME280;12598;62.382;17.344;2023-08-30T02:52:30;100615.38;;;26.15;37.87
13478;BME280;12598;62.382;17.344;2023-08-30T02:53:31;100605.78;;;26.13;37.74
13478;BME280;12598;62.382;17.344;2023-08-30T02:54:33;100613.72;;;26.14;38.06
13478;BME280;12598;62.382;17.344;2023-08-30T02:55:35;100608.28;;;26.14;37.82
13478;BME280;12598;62.382;17.344;2023-08-30T02:56:37;100604.72;;;26.14;38.05
13478;BME280;12598;62.382;17.344;2023-08-30T02:57:39;100612.88;;;26.14;37.97
13478;BME280;12598;62.382;17.344;2023-08-30T02:58:41;100612.66;;;26.15;37.88
13478;BME280;12598;62.382;17.344;2023-08-30T02:59:43;100618.28;;;26.14;37.53
13478;BME280;12598;62.382;17.344;2023-08-30T03:00:45;100621.00;;;26.14;38.14
13478;BME280;12598;62.382;17.344;2023-08-30T03:01:47;100617.47;;;26.13;38.15
13478;BME280;12598;62.382;17.344;2023-08-30T03:02:52;100619.94;;;26.15;37.84
13478;BME280;12598;62.382;17.344;2023-08-30T03:03:54;100617.25;;;26.15;38.02
13478;BME280;12598;62.382;17.344;2023-08-30T03:04:56;100621.00;;;26.14;38.36
13478;BME280;12598;62.382;17.344;2023-08-30T03:05:58;100627.25;;;26.14;38.15
13478;BME280;12598;62.382;17.344;2023-08-30T03:07:00;100606.81;;;26.05;38.10
13478;BME280;12598;62.382;17.344;2023-08-30T03:08:03;100622.66;;;26.15;37.91
13478;BME280;12598;62.382;17.344;2023-08-30T03:09:06;100631.00;;;26.13;38.18
13478;BME280;12598;62.382;17.344;2023-08-30T03:10:11;100616.59;;;26.13;38.06
13478;BME280;12598;62.382;17.344;2023-08-30T03:11:13;100627.25;;;26.14;37.99
13478;BME280;12598;62.382;17.344;2023-08-30T03:12:23;100623.50;;;26.15;38.09
13478;BME280;12598;62.382;17.344;2023-08-30T03:13:25;100634.34;;;26.15;38.01
13478;BME280;12598;62.382;17.344;2023-08-30T03:14:27;100632.69;;;26.14;37.96
13478;BME280;12598;62.382;17.344;2023-08-30T03:15:32;100621.00;;;26.14;38.07
13478;BME280;12598;62.382;17.344;2023-08-30T03:16:36;100625.19;;;26.16;37.83
13478;BME280;12598;62.382;17.344;2023-08-30T03:17:38;100622.66;;;26.15;38.15
13478;BME280;12598;62.382;17.344;2023-08-30T03:18:40;100625.38;;;26.15;38.08
13478;BME280;12598;62.382;17.344;2023-08-30T03:19:43;100618.06;;;26.09;38.15
13478;BME280;12598;62.382;17.344;2023-08-30T03:20:45;100623.50;;;26.15;38.13
13478;BME280;12598;62.382;17.344;2023-08-30T03:21:47;100612.63;;;26.09;37.89
13478;BME280;12598;62.382;17.344;2023-08-30T03:22:48;100616.59;;;26.13;38.06
13478;BME280;12598;62.382;17.344;2023-08-30T03:23:50;100619.31;;;26.13;38.12
13478;BME280;12598;62.382;17.344;2023-08-30T03:24:52;100619.31;;;26.13;37.96
13478;BME280;12598;62.382;17.344;2023-08-30T03:25:54;100618.28;;;26.14;37.86
13478;BME280;12598;62.382;17.344;2023-08-30T03:26:56;100619.31;;;26.13;37.96
13478;BME280;12598;62.382;17.344;2023-08-30T03:27:58;100619.72;;;26.10;37.98
13478;BME280;12598;62.382;17.344;2023-08-30T03:29:00;100613.06;;;26.12;37.79
13478;BME280;12598;62.382;17.344;2023-08-30T03:30:03;100588.03;;;25.97;38.13
13478;BME280;12598;62.382;17.344;2023-08-30T03:31:19;100615.38;;;26.15;38.17
13478;BME280;12598;62.382;17.344;2023-08-30T03:32:22;100614.13;;;26.11;38.15
13478;BME280;12598;62.382;17.344;2023-08-30T03:33:23;100622.25;;;26.11;37.84
13478;BME280;12598;62.382;17.344;2023-08-30T03:34:25;100621.00;;;26.14;38.26
13478;BME280;12598;62.382;17.344;2023-08-30T03:35:27;100619.13;;;26.14;38.21
13478;BME280;12598;62.382;17.344;2023-08-30T03:36:29;100614.75;;;26.13;38.05
13478;BME280;12598;62.382;17.344;2023-08-30T03:37:31;100615.78;;;26.12;38.35
13478;BME280;12598;62.382;17.344;2023-08-30T03:38:33;100616.59;;;26.13;37.98
13478;BME280;12598;62.382;17.344;2023-08-30T03:39:35;100615.78;;;26.12;38.00
13478;BME280;12598;62.382;17.344;2023-08-30T03:40:36;100615.78;;;26.12;38.19
13478;BME280;12598;62.382;17.344;2023-08-30T03:41:41;100613.06;;;26.12;37.90
13478;BME280;12598;62.382;17.344;2023-08-30T03:42:43;100612.22;;;26.12;38.17
13478;BME280;12598;62.382;17.344;2023-08-30T03:43:45;100610.56;;;26.11;37.96
13478;BME280;12598;62.382;17.344;2023-08-30T03:44:47;100615.78;;;26.12;38.39
13478;BME280;12598;62.382;17.344;2023-08-30T03:45:48;100607.66;;;26.12;38.50
13478;BME280;12598;62.382;17.344;2023-08-30T03:46:52;100610.56;;;26.11;38.33
13478;BME280;12598;62.382;17.344;2023-08-30T03:47:54;100608.06;;;26.09;38.25
13478;BME280;12598;62.382;17.344;2023-08-30T03:48:56;100613.28;;;26.11;38.46
13478;BME280;12598;62.382;17.344;2023-08-30T03:49:58;100600.34;;;26.06;38.26
13478;BME280;12598;62.382;17.344;2023-08-30T03:51:00;100606.19;;;26.10;38.22
13478;BME280;12598;62.382;17.344;2023-08-30T03:52:02;100598.03;;;26.10;38.43
13478;BME280;12598;62.382;17.344;2023-08-30T03:53:04;100602.66;;;26.09;38.13
13478;BME280;12598;62.382;17.344;2023-08-30T03:54:06;100600.75;;;26.10;38.33
13478;BME280;12598;62.382;17.344;2023-08-30T03:55:08;100603.47;;;26.10;38.27
13478;BME280;12598;62.382;17.344;2023-08-30T03:56:10;100598.03;;;26.10;38.36
13478;BME280;12598;62.382;17.344;2023-08-30T03:57:12;100597.22;;;26.09;38.25
13478;BME280;12598;62.382;17.344;2023-08-30T03:58:15;100593.47;;;26.10;38.37
13478;BME280;12598;62.382;17.344;2023-08-30T03:59:17;100593.47;;;26.10;38.17
13478;BME280;12598;62.382;17.344;2023-08-30T04:00:20;100587.84;;;26.05;38.13
13478;BME280;12598;62.382;17.344;2023-08-30T04:01:24;100595.16;;;26.11;38.17
13478;BME280;12598;62.382;17.344;2023-08-30T04:02:26;100593.47;;;26.10;38.16
13478;BME280;12598;62.382;17.344;2023-08-30T04:03:28;100591.59;;;26.11;38.18
13478;BME280;12598;62.382;17.344;2023-08-30T04:04:30;100590.94;;;26.09;38.36
13478;BME280;12598;62.382;17.344;2023-08-30T04:05:33;100588.88;;;26.11;38.33
13478;BME280;12598;62.382;17.344;2023-08-30T04:06:35;100587.22;;;26.10;38.26
13478;BME280;12598;62.382;17.344;2023-08-30T04:07:37;100585.94;;;26.06;38.08
13478;BME280;12598;62.382;17.344;2023-08-30T04:08:39;100590.13;;;26.08;38.63
13478;BME280;12598;62.382;17.344;2023-08-30T04:09:41;100597.22;;;26.09;38.28
13478;BME280;12598;62.382;17.344;2023-08-30T04:10:43;100587.22;;;26.10;38.32
13478;BME280;12598;62.382;17.344;2023-08-30T04:11:49;100588.06;;;26.10;38.36
13478;BME280;12598;62.382;17.344;2023-08-30T04:12:50;100594.28;;;26.11;38.38
13478;BME280;12598;62.382;17.344;2023-08-30T04:13:52;100585.53;;;26.09;38.24
13478;BME280;12598;62.382;17.344;2023-08-30T04:14:54;100587.44;;;26.08;38.27
13478;BME280;12598;62.382;17.344;2023-08-30T04:15:56;100582.81;;;26.09;38.14
13478;BME280;12598;62.382;17.344;2023-08-30T04:17:00;100575.97;;;26.06;38.24
13478;BME280;12598;62.382;17.344;2023-08-30T04:18:02;100575.53;;;26.09;38.53
13478;BME280;12598;62.382;17.344;2023-08-30T04:19:04;100578.25;;;26.09;38.32
13478;BME280;12598;62.382;17.344;2023-08-30T04:20:07;100569.69;;;26.06;38.45
13478;BME280;12598;62.382;17.344;2023-08-30T04:21:09;100568.47;;;26.08;38.18
13478;BME280;12598;62.382;17.344;2023-08-30T04:22:11;100567.41;;;26.09;38.20
13478;BME280;12598;62.382;17.344;2023-08-30T04:23:13;100571.16;;;26.08;38.32
13478;BME280;12598;62.382;17.344;2023-08-30T04:24:15;100566.78;;;26.07;38.37
13478;BME280;12598;62.382;17.344;2023-08-30T04:25:17;100558.44;;;26.02;38.25
13478;BME280;12598;62.382;17.344;2023-08-30T04:26:19;100553.19;;;26.01;38.38
13478;BME280;12598;62.382;17.344;2023-08-30T04:27:20;100549.69;;;26.00;37.92
13478;BME280;12598;62.382;17.344;2023-08-30T04:28:22;100561.38;;;26.07;38.79
13478;BME280;12598;62.382;17.344;2023-08-30T04:29:26;100567.59;;;26.08;38.18
13478;BME280;12598;62.382;17.344;2023-08-30T04:30:28;100564.91;;;26.08;38.32
13478;BME280;12598;62.382;17.344;2023-08-30T04:31:29;100561.38;;;26.07;38.31
13478;BME280;12598;62.382;17.344;2023-08-30T04:32:31;100566.78;;;26.07;37.98
13478;BME280;12598;62.382;17.344;2023-08-30T04:33:33;100561.38;;;26.07;38.00
13478;BME280;12598;62.382;17.344;2023-08-30T04:34:36;100568.47;;;26.08;38.13
13478;BME280;12598;62.382;17.344;2023-08-30T04:35:39;100566.78;;;26.07;38.23
13478;BME280;12598;62.382;17.344;2023-08-30T04:36:40;100560.09;;;26.03;38.33
13478;BME280;12598;62.382;17.344;2023-08-30T04:37:43;100566.78;;;26.07;38.01
13478;BME280;12598;62.382;17.344;2023-08-30T04:38:45;100565.94;;;26.07;38.37
13478;BME280;12598;62.382;17.344;2023-08-30T04:40:05;100563.44;;;26.12;38.26
13478;BME280;12598;62.382;17.344;2023-08-30T04:41:07;100550.09;;;26.04;38.12
13478;BME280;12598;62.382;17.344;2023-08-30T04:42:10;100559.28;;;26.09;38.61
13478;BME280;12598;62.382;17.344;2023-08-30T04:43:13;100563.03;;;26.08;38.34
13478;BME280;12598;62.382;17.344;2023-08-30T04:44:15;100561.38;;;26.07;38.41
13478;BME280;12598;62.382;17.344;2023-08-30T04:45:19;100553.25;;;26.07;38.57
13478;BME280;12598;62.382;17.344;2023-08-30T04:46:20;100554.28;;;26.06;38.44
13478;BME280;12598;62.382;17.344;2023-08-30T04:47:22;100548.84;;;26.06;38.42
13478;BME280;12598;62.382;17.344;2023-08-30T04:48:24;100548.84;;;26.06;38.37
13478;BME280;12598;62.382;17.344;2023-08-30T04:49:27;100542.59;;;26.06;38.78
13478;BME280;12598;62.382;17.344;2023-08-30T04:50:31;100540.72;;;26.06;38.68
13478;BME280;12598;62.382;17.344;2023-08-30T04:51:34;100545.91;;;26.08;38.37
13478;BME280;12598;62.382;17.344;2023-08-30T04:52:35;100533.41;;;26.07;38.61
13478;BME280;12598;62.382;17.344;2023-08-30T04:53:37;100533.63;;;26.05;38.63
13478;BME280;12598;62.382;17.344;2023-08-30T04:54:39;100535.31;;;26.06;38.58
13478;BME280;12598;62.382;17.344;2023-08-30T04:55:43;100538.03;;;26.06;38.64
13478;BME280;12598;62.382;17.344;2023-08-30T04:56:45;100535.09;;;26.01;38.93
13478;BME280;12598;62.382;17.344;2023-08-30T04:57:47;100543.44;;;26.06;38.66
13478;BME280;12598;62.382;17.344;2023-08-30T04:58:51;100542.41;;;26.07;38.58
13478;BME280;12598;62.382;17.344;2023-08-30T04:59:53;100543.44;;;26.06;38.64
13478;BME280;12598;62.382;17.344;2023-08-30T05:00:56;100542.59;;;26.06;38.70
13478;BME280;12598;62.382;17.344;2023-08-30T05:02:00;100539.69;;;26.07;38.63
13478;BME280;12598;62.382;17.344;2023-08-30T05:03:03;100538.44;;;26.03;39.04
13478;BME280;12598;62.382;17.344;2023-08-30T05:04:05;100545.91;;;26.08;38.70
13478;BME280;12598;62.382;17.344;2023-08-30T05:05:08;100538.84;;;26.07;39.22
13478;BME280;12598;62.382;17.344;2023-08-30T05:06:09;100539.69;;;26.07;38.86
13478;BME280;12598;62.382;17.344;2023-08-30T05:07:14;100542.41;;;26.07;38.97
13478;BME280;12598;62.382;17.344;2023-08-30T05:08:15;100546.78;;;26.08;39.01
13478;BME280;12598;62.382;17.344;2023-08-30T05:09:17;100550.31;;;26.09;38.85
13478;BME280;12598;62.382;17.344;2023-08-30T05:10:19;100545.09;;;26.07;38.97
13478;BME280;12598;62.382;17.344;2023-08-30T05:11:21;100551.97;;;26.10;38.58
13478;BME280;12598;62.382;17.344;2023-08-30T05:12:23;100553.44;;;26.12;39.20
13478;BME280;12598;62.382;17.344;2023-08-30T05:13:25;100553.22;;;26.14;38.83
13478;BME280;12598;62.382;17.344;2023-08-30T05:14:27;100553.03;;;26.15;38.60
13478;BME280;12598;62.382;17.344;2023-08-30T05:15:29;100548.25;;;26.17;39.13
13478;BME280;12598;62.382;17.344;2023-08-30T05:16:31;100528.22;;;26.05;38.78
13478;BME280;12598;62.382;17.344;2023-08-30T05:17:33;100553.88;;;26.22;38.98
13478;BME280;12598;62.382;17.344;2023-08-30T05:18:35;100553.47;;;26.25;38.90
13478;BME280;12598;62.382;17.344;2023-08-30T05:19:37;100543.47;;;26.26;38.90
13478;BME280;12598;62.382;17.344;2023-08-30T05:20:39;100547.44;;;26.30;38.59
13478;BME280;12598;62.382;17.344;2023-08-30T05:21:41;100552.22;;;26.34;38.51
13478;BME280;12598;62.382;17.344;2023-08-30T05:22:42;100557.66;;;26.34;38.62
13478;BME280;12598;62.382;17.344;2023-08-30T05:23:45;100544.94;;;26.35;38.70
13478;BME280;12598;62.382;17.344;2023-08-30T05:24:48;100554.78;;;26.42;38.42
13478;BME280;12598;62.382;17.344;2023-08-30T05:25:50;100544.16;;;26.47;38.35
13478;BME280;12598;62.382;17.344;2023-08-30T05:26:52;100548.31;;;26.50;38.52
13478;BME280;12598;62.382;17.344;2023-08-30T05:27:59;100549.56;;;26.54;38.15